In Rescue
 
Open Full Screen Window  High Contrast Mode
Wind Gusting 00 knots
07
July 22, 2019 9:28 AM CDT
Weather Information
Wind Direction
  360 °
Wind Speed
  07 kt (8 mph)
Wind Gust
  00 kt (0 mph)
Altimeter
30.28 in
Visibility
10 SM
Temperature
20° C
68° F
Dewpoint
12° C
54° F
Humidity
60%
1hr Rain Fall
00.00 in.
24hr Rain Fall
00.00 in.
Sky Condition
Clear
VFR

METAR KPEX 221428Z AUTO 36007KT 10SM CLR 20/12 A3028 RMK AO2 T01950122

FAA Disclaimer: The data displayed is for advisory purposes only and is not to be used for flight planning or operations.